Time;durP1;ratioP1;P1;durP2;ratioP2;P2;SDS_P1;SDS_P2;PMS_P1;PMS_P2;Temp;Humidity;BMP_temperature;BMP_pressure;BME280_temperature;BME280_humidity;BME280_pressure;Samples;Min_cycle;Max_cycle;Signal;HPM_P1;HPM_P2
2022/10/05 00:01:34;;;;;;;8.10;4.35;;;17.40;77.10;;;;;;5085806;28;20056;-75
2022/10/05 00:04:14;;;;;;;7.60;4.65;;;17.30;76.80;;;;;;5077597;28;20135;-75
2022/10/05 00:06:44;;;;;;;9.27;6.03;;;17.30;76.90;;;;;;5088965;28;20835;-75
2022/10/05 00:09:16;;;;;;;11.88;5.97;;;17.20;78.20;;;;;;5084277;28;20040;-74
2022/10/05 00:11:43;;;;;;;9.93;5.57;;;17.20;77.80;;;;;;5069600;28;20024;-75
2022/10/05 00:14:19;;;;;;;7.72;4.25;;;17.20;77.90;;;;;;5083837;28;20023;-75
2022/10/05 00:16:45;;;;;;;11.77;6.57;;;17.20;76.90;;;;;;5082167;28;20493;-74
2022/10/05 00:19:35;;;;;;;9.13;5.28;;;17.20;77.80;;;;;;5084136;28;20035;-75
2022/10/05 00:22:17;;;;;;;7.75;4.82;;;17.20;77.50;;;;;;5057251;28;20131;-75
2022/10/05 00:24:44;;;;;;;11.50;6.25;;;17.20;77.80;;;;;;5085571;28;20031;-75
2022/10/05 00:27:24;;;;;;;11.93;5.68;;;17.20;78.30;;;;;;5089168;28;20035;-75
2022/10/05 00:29:52;;;;;;;12.25;7.18;;;17.20;77.80;;;;;;5088160;28;20039;-75
2022/10/05 00:32:18;;;;;;;8.50;6.32;;;17.20;78.00;;;;;;5089304;28;20059;-75
2022/10/05 00:34:44;;;;;;;8.20;5.35;;;17.20;78.50;;;;;;5076113;28;20024;-75
2022/10/05 00:37:12;;;;;;;11.85;6.90;;;17.20;78.00;;;;;;5088314;28;20032;-74
2022/10/05 00:39:39;;;;;;;9.45;4.70;;;17.20;78.60;;;;;;5077165;28;20056;-75
2022/10/05 00:42:31;;;;;;;9.88;5.50;;;17.20;78.20;;;;;;5071687;28;20036;-75
2022/10/05 00:45:01;;;;;;;10.55;6.00;;;17.20;78.60;;;;;;5076317;28;20025;-75
2022/10/05 00:48:04;;;;;;;11.20;6.70;;;17.20;78.70;;;;;;5089174;28;20108;-75
2022/10/05 00:50:30;;;;;;;8.40;6.05;;;17.20;79.30;;;;;;5077591;28;20081;-75
2022/10/05 00:53:15;;;;;;;10.90;5.78;;;17.20;79.30;;;;;;5089584;28;20032;-74
2022/10/05 00:56:02;;;;;;;9.75;6.57;;;17.20;79.40;;;;;;5086429;28;20478;-75
2022/10/05 00:58:48;;;;;;;12.63;6.43;;;17.20;79.70;;;;;;5088513;28;20027;-74
2022/10/05 01:01:44;;;;;;;11.90;7.90;;;17.20;79.70;;;;;;5080056;28;20406;-75
2022/10/05 01:04:39;;;;;;;10.32;6.43;;;17.10;80.10;;;;;;5063614;28;20205;-74
2022/10/05 01:07:07;;;;;;;11.55;6.57;;;17.10;80.00;;;;;;5088112;28;20035;-74
2022/10/05 01:09:59;;;;;;;9.43;5.15;;;17.10;80.30;;;;;;5085359;28;20026;-75
2022/10/05 01:12:58;;;;;;;10.55;6.65;;;17.10;79.10;;;;;;5082774;28;20366;-74
2022/10/05 01:15:36;;;;;;;13.60;6.75;;;17.10;79.60;;;;;;5075007;28;20051;-75
2022/10/05 01:18:15;;;;;;;11.55;6.72;;;17.10;79.80;;;;;;5088281;28;20063;-75
2022/10/05 01:20:44;;;;;;;9.50;5.55;;;17.10;79.60;;;;;;5078337;28;20487;-75
2022/10/05 01:23:10;;;;;;;7.93;5.40;;;17.10;78.80;;;;;;5067308;28;20063;-75
2022/10/05 01:26:07;;;;;;;9.20;5.75;;;17.10;78.80;;;;;;5085873;28;20906;-75
2022/10/05 01:28:51;;;;;;;9.95;5.78;;;17.10;78.60;;;;;;5088541;28;20020;-75
2022/10/05 01:31:22;;;;;;;11.35;6.63;;;17.00;79.80;;;;;;5083846;28;20032;-75
2022/10/05 01:34:16;;;;;;;11.85;6.10;;;17.00;79.80;;;;;;5073293;28;20107;-75
2022/10/05 01:36:53;;;;;;;11.30;6.82;;;16.90;80.40;;;;;;5087097;28;20024;-75
2022/10/05 01:39:24;;;;;;;9.63;5.65;;;16.90;80.20;;;;;;5087529;28;20035;-75
2022/10/05 01:42:04;;;;;;;10.55;6.25;;;16.90;79.60;;;;;;5082543;28;20106;-75
2022/10/05 01:44:36;;;;;;;11.40;6.65;;;16.90;81.50;;;;;;5068549;28;20499;-75
2022/10/05 01:47:08;;;;;;;11.75;6.82;;;16.90;81.40;;;;;;5080068;28;20020;-75
2022/10/05 01:49:50;;;;;;;9.85;6.70;;;16.90;80.20;;;;;;5067872;28;20028;-75
2022/10/05 01:52:34;;;;;;;13.25;8.65;;;16.90;80.70;;;;;;5080363;28;20023;-75
2022/10/05 01:55:11;;;;;;;12.07;7.15;;;16.90;81.20;;;;;;5078851;28;20039;-75
2022/10/05 01:57:59;;;;;;;9.60;5.80;;;16.90;80.90;;;;;;5080448;28;20028;-74
2022/10/05 02:00:27;;;;;;;13.70;6.97;;;16.90;80.50;;;;;;5068605;28;20075;-75
2022/10/05 02:02:58;;;;;;;10.52;7.03;;;16.90;81.70;;;;;;5083633;28;20016;-75
2022/10/05 02:05:32;;;;;;;13.55;8.63;;;16.90;81.50;;;;;;5087912;28;20081;-75
2022/10/05 02:08:07;;;;;;;16.10;9.50;;;16.90;81.40;;;;;;5075217;28;20028;-75
2022/10/05 02:10:42;;;;;;;11.02;6.65;;;16.90;81.10;;;;;;5087925;28;20504;-74
2022/10/05 02:13:18;;;;;;;10.38;5.88;;;16.80;80.40;;;;;;5084106;28;20039;-76
2022/10/05 02:15:50;;;;;;;11.15;7.15;;;16.70;80.30;;;;;;5067547;28;20041;-75
2022/10/05 02:18:23;;;;;;;15.98;9.65;;;16.70;81.00;;;;;;5082955;28;20020;-75
2022/10/05 02:20:51;;;;;;;11.80;8.25;;;16.70;82.10;;;;;;5055441;22;20057;-75
2022/10/05 02:23:22;;;;;;;8.70;6.13;;;16.60;81.90;;;;;;5008844;28;20045;-75
2022/10/05 02:25:51;;;;;;;14.43;9.43;;;16.60;80.00;;;;;;5008841;28;20033;-76
2022/10/05 02:28:46;;;;;;;9.15;6.53;;;16.60;82.30;;;;;;5031236;28;20025;-75
2022/10/05 02:31:16;;;;;;;15.23;9.82;;;16.60;81.50;;;;;;5035839;28;20037;-75
2022/10/05 02:33:42;;;;;;;10.48;6.50;;;16.50;83.00;;;;;;5009408;28;20388;-76
2022/10/05 02:36:23;;;;;;;13.05;7.90;;;16.40;82.20;;;;;;5029058;28;20028;-76
2022/10/05 02:39:17;;;;;;;11.70;5.32;;;16.50;82.30;;;;;;5028271;28;20022;-77
2022/10/05 02:42:01;;;;;;;13.98;9.88;;;16.50;81.00;;;;;;5009152;28;20022;-76
2022/10/05 02:44:50;;;;;;;12.45;7.30;;;16.50;81.80;;;;;;5010050;28;20038;-76
2022/10/05 02:47:32;;;;;;;12.43;7.43;;;16.40;81.30;;;;;;5027718;28;20040;-76
2022/10/05 02:50:25;;;;;;;13.27;8.45;;;16.50;81.20;;;;;;5027535;28;20037;-76
2022/10/05 02:53:40;;;;;;;15.13;9.10;;;16.40;82.50;;;;;;5027293;28;20018;-75
2022/10/05 02:56:22;;;;;;;12.73;9.48;;;16.30;83.50;;;;;;5020933;28;20503;-76
2022/10/05 02:59:15;;;;;;;10.73;7.05;;;16.30;83.10;;;;;;5022825;28;20037;-76
2022/10/05 03:02:09;;;;;;;17.33;10.10;;;16.30;82.10;;;;;;5013268;28;20033;-76
2022/10/05 03:05:04;;;;;;;12.55;8.35;;;16.30;82.90;;;;;;5030442;28;20056;-77
2022/10/05 03:07:52;;;;;;;17.75;10.20;;;16.30;82.70;;;;;;5027183;28;20043;-76
2022/10/05 03:10:46;;;;;;;17.10;8.45;;;16.40;83.00;;;;;;5029648;28;20025;-76
2022/10/05 03:13:36;;;;;;;10.77;6.53;;;16.30;83.50;;;;;;5030575;28;20040;-77
2022/10/05 03:16:34;;;;;;;12.43;8.02;;;16.30;83.10;;;;;;5003295;28;20022;-75
2022/10/05 03:19:18;;;;;;;12.13;8.77;;;16.30;82.80;;;;;;5018421;28;20405;-77
2022/10/05 03:22:02;;;;;;;13.13;7.93;;;16.20;83.50;;;;;;5007100;28;20137;-77
2022/10/05 03:25:03;;;;;;;20.98;9.98;;;16.20;83.30;;;;;;5007844;28;20501;-76
2022/10/05 03:27:51;;;;;;;13.35;9.20;;;16.20;84.10;;;;;;4994070;28;20031;-76
2022/10/05 03:30:22;;;;;;;13.93;10.55;;;16.20;83.90;;;;;;5026634;28;20029;-76
2022/10/05 03:33:09;;;;;;;14.70;9.25;;;16.20;83.80;;;;;;5012485;28;20022;-76
2022/10/05 03:36:23;;;;;;;13.35;7.72;;;16.20;84.10;;;;;;5012400;28;20021;-75
2022/10/05 03:39:16;;;;;;;17.02;10.43;;;16.20;82.30;;;;;;5013122;28;20029;-74
2022/10/05 03:41:53;;;;;;;15.52;9.85;;;16.20;84.20;;;;;;5029473;28;20242;-75
2022/10/05 03:44:58;;;;;;;12.25;8.27;;;16.20;84.90;;;;;;5012196;28;20043;-76
2022/10/05 03:47:45;;;;;;;10.50;7.63;;;16.20;84.20;;;;;;4949090;28;20418;-76
2022/10/05 03:50:33;;;;;;;15.15;11.32;;;16.10;84.10;;;;;;5020360;28;20021;-75
2022/10/05 03:53:15;;;;;;;12.73;9.35;;;16.10;86.10;;;;;;5012300;28;20152;-76
2022/10/05 03:55:55;;;;;;;15.38;10.82;;;16.10;85.50;;;;;;5028516;28;20120;-76
2022/10/05 03:58:29;;;;;;;14.95;10.50;;;16.20;84.90;;;;;;5012674;28;20030;-75
2022/10/05 04:01:00;;;;;;;13.60;10.07;;;16.10;85.10;;;;;;5014207;28;20045;-76
2022/10/05 04:03:47;;;;;;;10.85;7.70;;;16.20;85.40;;;;;;5032131;28;20060;-76
2022/10/05 04:06:33;;;;;;;11.00;6.75;;;16.20;84.30;;;;;;5023280;28;20090;-76
2022/10/05 04:09:20;;;;;;;14.15;8.40;;;16.20;83.80;;;;;;5008607;28;20046;-74
2022/10/05 04:12:15;;;;;;;13.60;9.60;;;16.10;84.40;;;;;;5027081;28;20029;-75
2022/10/05 04:14:47;;;;;;;15.88;9.45;;;16.20;84.60;;;;;;5013059;28;20090;-75
2022/10/05 04:17:33;;;;;;;12.65;9.05;;;16.20;84.50;;;;;;5028675;28;20100;-75
2022/10/05 04:20:03;;;;;;;15.10;9.85;;;16.20;84.40;;;;;;5029744;28;20144;-75
2022/10/05 04:22:44;;;;;;;13.52;8.60;;;16.20;84.80;;;;;;5028897;28;20032;-76
2022/10/05 04:25:28;;;;;;;15.57;10.18;;;16.20;85.10;;;;;;5032122;28;20384;-76
2022/10/05 04:28:19;;;;;;;13.80;9.50;;;16.20;84.40;;;;;;5029302;28;20022;-76
2022/10/05 04:30:50;;;;;;;15.63;10.13;;;16.20;85.90;;;;;;4993457;28;20132;-75
2022/10/05 04:33:16;;;;;;;13.93;8.18;;;16.20;85.20;;;;;;5029223;28;20026;-75
2022/10/05 04:35:53;;;;;;;8.98;7.15;;;16.10;84.60;;;;;;5031795;28;20048;-75
2022/10/05 04:38:43;;;;;;;15.43;8.95;;;16.20;83.40;;;;;;5021807;28;20033;-76
2022/10/05 04:41:11;;;;;;;10.70;6.93;;;16.20;84.40;;;;;;5012648;28;20400;-75
2022/10/05 04:44:18;;;;;;;8.30;5.43;;;16.20;84.20;;;;;;5010863;28;20048;-77
2022/10/05 04:47:03;;;;;;;11.30;8.00;;;16.20;83.50;;;;;;5000771;28;20039;-76
2022/10/05 04:49:47;;;;;;;10.82;7.05;;;16.20;83.50;;;;;;5017430;28;20025;-74
2022/10/05 04:52:47;;;;;;;11.65;7.00;;;16.20;83.20;;;;;;5010681;28;20017;-74
2022/10/05 04:55:34;;;;;;;7.10;4.60;;;16.30;83.20;;;;;;5011418;28;20026;-75
2022/10/05 04:58:21;;;;;;;11.93;7.38;;;16.30;82.10;;;;;;5017761;28;20035;-74
2022/10/05 05:00:53;;;;;;;14.32;8.32;;;16.20;83.60;;;;;;5010791;28;20026;-75
2022/10/05 05:03:47;;;;;;;11.85;8.80;;;16.20;83.50;;;;;;5028391;28;20032;-75
2022/10/05 05:06:31;;;;;;;15.05;10.27;;;16.20;84.50;;;;;;4991177;28;20034;-75
2022/10/05 05:09:17;;;;;;;10.15;5.90;;;16.20;85.30;;;;;;5008135;28;20381;-75
2022/10/05 05:11:58;;;;;;;19.15;10.10;;;16.20;83.30;;;;;;5029701;28;20112;-76
2022/10/05 05:14:30;;;;;;;15.95;9.73;;;16.10;85.30;;;;;;5029525;28;20476;-76
2022/10/05 05:17:31;;;;;;;11.93;6.85;;;16.10;85.80;;;;;;5028341;28;20104;-76
2022/10/05 05:20:15;;;;;;;14.95;9.25;;;16.10;84.20;;;;;;5018432;28;20030;-75
2022/10/05 05:22:50;;;;;;;11.38;7.60;;;16.20;84.50;;;;;;5010945;28;20025;-75
2022/10/05 05:25:28;;;;;;;13.20;8.95;;;16.10;85.00;;;;;;5028564;28;20033;-76
2022/10/05 05:28:05;;;;;;;13.18;8.75;;;16.10;85.70;;;;;;5034778;28;20028;-75
2022/10/05 05:30:41;;;;;;;10.50;5.93;;;16.10;84.60;;;;;;5001388;28;20196;-77
2022/10/05 05:33:14;;;;;;;10.48;5.82;;;16.10;83.10;;;;;;5013042;28;20048;-77
2022/10/05 05:36:15;;;;;;;14.60;9.80;;;16.10;83.20;;;;;;5028182;28;20029;-76
2022/10/05 05:39:03;;;;;;;10.43;7.22;;;16.10;84.30;;;;;;5024571;28;20049;-74
2022/10/05 05:41:50;;;;;;;11.93;7.65;;;16.10;83.60;;;;;;5026724;28;20488;-76
2022/10/05 05:44:28;;;;;;;12.43;8.18;;;16.10;83.30;;;;;;5008017;28;20088;-74
2022/10/05 05:47:07;;;;;;;12.30;6.95;;;16.10;83.50;;;;;;5029271;28;20472;-75
2022/10/05 05:49:51;;;;;;;12.82;9.52;;;16.10;83.00;;;;;;5011031;28;20144;-75
2022/10/05 05:52:29;;;;;;;13.20;7.35;;;16.00;84.60;;;;;;5009494;28;20029;-74
2022/10/05 05:55:00;;;;;;;12.57;8.32;;;16.10;83.70;;;;;;5009352;28;20045;-75
2022/10/05 05:57:32;;;;;;;12.23;6.70;;;16.10;83.20;;;;;;5009336;28;20017;-74
2022/10/05 06:00:07;;;;;;;9.73;5.68;;;16.00;83.90;;;;;;5005969;28;20025;-76
2022/10/05 06:03:11;;;;;;;13.50;9.13;;;16.10;83.30;;;;;;5008368;28;20132;-76
2022/10/05 06:05:57;;;;;;;10.65;6.95;;;16.10;85.20;;;;;;5007147;28;20048;-76
2022/10/05 06:08:29;;;;;;;12.23;9.15;;;16.00;83.80;;;;;;5027356;28;20075;-76
2022/10/05 06:11:00;;;;;;;13.43;8.82;;;16.00;84.10;;;;;;5038237;28;20123;-73
2022/10/05 06:13:39;;;;;;;8.82;5.57;;;16.10;84.80;;;;;;5025694;28;20033;-71
2022/10/05 06:16:18;;;;;;;8.10;4.43;;;16.20;84.20;;;;;;5025299;28;20036;-72
2022/10/05 06:18:50;;;;;;;13.25;5.82;;;16.20;83.20;;;;;;5009515;28;20109;-73
2022/10/05 06:21:35;;;;;;;9.13;5.50;;;16.30;82.90;;;;;;5010500;28;20526;-72
2022/10/05 06:24:12;;;;;;;9.30;5.85;;;16.30;81.90;;;;;;5008419;28;20047;-72
2022/10/05 06:27:06;;;;;;;11.65;7.45;;;16.40;81.60;;;;;;5027271;28;20049;-72
2022/10/05 06:29:55;;;;;;;13.13;7.75;;;16.40;82.20;;;;;;5026378;28;20030;-73
2022/10/05 06:32:45;;;;;;;14.15;6.18;;;16.40;82.60;;;;;;5016642;28;20035;-73
2022/10/05 06:35:26;;;;;;;9.60;5.57;;;16.50;82.40;;;;;;5010725;28;20067;-73
2022/10/05 06:38:13;;;;;;;9.88;5.35;;;16.60;82.60;;;;;;5022520;28;20063;-73
2022/10/05 06:41:00;;;;;;;11.63;5.10;;;16.60;82.60;;;;;;5012093;28;20057;-73
2022/10/05 06:43:38;;;;;;;9.02;4.80;;;16.70;82.50;;;;;;5031040;28;20033;-73
2022/10/05 06:46:19;;;;;;;8.13;4.88;;;16.70;82.50;;;;;;5033222;28;20056;-73
2022/10/05 06:48:51;;;;;;;8.95;4.60;;;16.70;81.10;;;;;;5019699;28;20028;-73
2022/10/05 06:51:42;;;;;;;7.00;4.47;;;16.80;80.70;;;;;;5015507;28;20040;-73
2022/10/05 06:54:40;;;;;;;8.80;4.97;;;16.70;81.10;;;;;;5033882;28;20538;-73
2022/10/05 06:57:29;;;;;;;9.25;4.70;;;16.70;81.00;;;;;;5013027;28;20494;-73
2022/10/05 07:00:00;;;;;;;9.52;4.22;;;16.70;80.90;;;;;;4994279;28;20068;-73
2022/10/05 07:02:44;;;;;;;6.63;3.25;;;16.70;80.80;;;;;;5027817;28;20084;-71
2022/10/05 07:05:42;;;;;;;7.88;4.25;;;16.60;80.40;;;;;;5012337;28;20503;-72
2022/10/05 07:08:26;;;;;;;8.25;4.60;;;16.70;80.70;;;;;;5013428;28;20435;-73
2022/10/05 07:11:17;;;;;;;7.05;4.70;;;16.80;80.60;;;;;;5031672;28;20075;-73
2022/10/05 07:14:14;;;;;;;10.40;4.35;;;16.80;80.40;;;;;;5030014;28;20041;-73
2022/10/05 07:17:10;;;;;;;6.55;3.28;;;16.70;80.60;;;;;;5011783;28;20025;-73
2022/10/05 07:20:02;;;;;;;6.03;3.78;;;16.80;80.20;;;;;;5029602;28;20033;-73
2022/10/05 07:22:48;;;;;;;7.05;4.05;;;16.90;79.90;;;;;;5037272;28;20615;-73
2022/10/05 07:25:39;;;;;;;7.40;4.70;;;17.00;79.20;;;;;;5031411;28;20056;-73
2022/10/05 07:28:15;;;;;;;7.88;4.57;;;16.90;79.50;;;;;;5013785;28;20480;-74
2022/10/05 07:31:12;;;;;;;5.30;3.30;;;16.90;79.30;;;;;;5029482;28;20052;-73
2022/10/05 07:33:45;;;;;;;6.95;4.00;;;16.90;79.00;;;;;;5020009;28;20032;-72
2022/10/05 07:39:17;;;;;;;8.75;5.65;;;16.90;79.40;;;;;;5029304;28;20392;-73
2022/10/05 07:41:50;;;;;;;9.20;5.13;;;16.90;79.70;;;;;;5030081;28;20022;-73
2022/10/05 07:44:27;;;;;;;8.43;4.45;;;16.80;80.00;;;;;;5011633;28;20041;-73
2022/10/05 07:46:59;;;;;;;8.73;4.43;;;16.80;79.90;;;;;;5008809;28;20546;-74
2022/10/05 07:49:46;;;;;;;7.47;4.30;;;16.90;79.90;;;;;;5009345;28;20040;-75
2022/10/05 07:52:30;;;;;;;7.97;4.85;;;16.90;80.00;;;;;;5008551;28;20025;-76
2022/10/05 07:55:18;;;;;;;8.77;4.80;;;16.80;79.20;;;;;;5027442;28;20022;-76
2022/10/05 07:57:49;;;;;;;10.70;4.68;;;16.80;79.50;;;;;;5028247;28;20029;-76
2022/10/05 08:00:19;;;;;;;7.53;5.25;;;16.80;79.90;;;;;;5009898;28;20036;-77
2022/10/05 08:03:07;;;;;;;6.38;4.50;;;16.80;80.40;;;;;;5008458;28;20038;-75
2022/10/05 08:05:40;;;;;;;9.93;5.97;;;16.70;80.20;;;;;;5010123;28;20025;-76
2022/10/05 08:08:31;;;;;;;6.93;4.43;;;16.70;81.60;;;;;;5027870;28;20162;-76
2022/10/05 08:11:03;;;;;;;7.15;4.60;;;16.70;79.90;;;;;;4990089;28;20037;-76
2022/10/05 08:13:46;;;;;;;53.60;27.15;;;16.70;80.80;;;;;;5008802;28;20434;-77
2022/10/05 08:16:13;;;;;;;47.20;21.98;;;16.60;81.70;;;;;;5027198;28;20208;-75
2022/10/05 08:18:48;;;;;;;44.25;18.95;;;16.60;82.00;;;;;;5007640;28;20813;-75
2022/10/05 08:21:18;;;;;;;30.60;13.63;;;16.60;81.80;;;;;;5026711;28;20064;-79
2022/10/05 08:24:02;;;;;;;19.80;10.18;;;16.60;82.10;;;;;;5008143;28;20065;-76
2022/10/05 08:26:51;;;;;;;15.30;7.03;;;16.60;82.70;;;;;;5009426;28;20488;-78
2022/10/05 08:29:52;;;;;;;10.50;4.80;;;16.70;82.10;;;;;;5008761;28;20021;-77
2022/10/05 08:32:42;;;;;;;10.30;4.55;;;16.70;81.00;;;;;;5025199;28;20141;-78
2022/10/05 08:35:11;;;;;;;;;;;16.70;80.60;;;;;;5025871;28;20049;-77
2022/10/05 08:37:40;;;;;;;8.18;4.63;;;16.80;79.90;;;;;;5008885;28;19944;-78
2022/10/05 08:40:21;;;;;;;12.50;4.70;;;16.80;80.50;;;;;;5025581;28;20021;-76
2022/10/05 08:43:21;;;;;;;7.90;3.42;;;16.80;81.00;;;;;;5009063;28;20125;-74
2022/10/05 08:45:49;;;;;;;7.53;3.70;;;16.90;80.00;;;;;;5008758;28;20061;-74
2022/10/05 08:48:44;;;;;;;10.50;4.03;;;16.80;81.40;;;;;;5007020;28;20477;-75
2022/10/05 08:51:31;;;;;;;8.48;4.70;;;16.90;80.90;;;;;;5008027;28;20025;-75
2022/10/05 08:54:15;;;;;;;6.13;3.20;;;17.00;81.00;;;;;;5025509;28;20029;-75
2022/10/05 08:56:42;;;;;;;8.88;3.90;;;17.00;80.40;;;;;;5007511;28;20049;-77
2022/10/05 08:59:45;;;;;;;7.25;4.57;;;17.10;81.00;;;;;;5024214;28;20025;-72
2022/10/05 09:02:13;;;;;;;10.80;4.65;;;17.10;80.50;;;;;;5023344;28;20476;-74
2022/10/05 09:05:00;;;;;;;6.47;3.05;;;17.20;80.60;;;;;;5009676;28;20713;-73
2022/10/05 09:08:03;;;;;;;7.15;3.90;;;17.30;79.90;;;;;;5029464;28;20036;-73
2022/10/05 09:10:45;;;;;;;8.23;4.05;;;17.30;79.60;;;;;;5025883;28;20056;-75
2022/10/05 09:13:18;;;;;;;10.40;4.15;;;17.30;79.90;;;;;;5030576;28;20029;-75
2022/10/05 09:16:05;;;;;;;7.70;4.25;;;17.30;79.80;;;;;;5010799;28;20111;-75
2022/10/05 09:18:55;;;;;;;8.50;3.80;;;17.40;80.00;;;;;;5009343;28;20026;-75
2022/10/05 09:21:21;;;;;;;;;;;17.50;79.10;;;;;;5021088;28;20132;-76
2022/10/05 09:24:03;;;;;;;6.00;3.40;;;17.60;78.90;;;;;;5029658;28;20015;-77
2022/10/05 09:26:57;;;;;;;6.97;3.65;;;17.60;79.30;;;;;;4993181;28;20713;-78
2022/10/05 09:29:58;;;;;;;7.40;4.15;;;17.70;78.50;;;;;;5015146;28;20084;-77
2022/10/05 09:33:02;;;;;;;9.50;4.78;;;17.70;79.00;;;;;;5005266;28;20028;-79
2022/10/05 09:36:01;;;;;;;7.90;4.75;;;17.80;79.00;;;;;;5013615;28;20057;-78
2022/10/05 09:38:49;;;;;;;7.40;3.92;;;17.80;79.40;;;;;;5012271;28;20036;-80
2022/10/05 09:41:37;;;;;;;7.75;4.15;;;17.80;78.30;;;;;;4979931;28;20049;-78
2022/10/05 09:44:45;;;;;;;7.97;4.35;;;17.90;78.80;;;;;;5018538;28;20033;-75
2022/10/05 09:47:31;;;;;;;11.77;4.53;;;18.00;78.40;;;;;;5026477;28;20036;-77
2022/10/05 09:50:16;;;;;;;7.18;3.42;;;18.00;78.10;;;;;;5046326;28;20082;-76
2022/10/05 09:53:09;;;;;;;6.50;3.80;;;18.00;79.30;;;;;;5033455;28;20115;-78
2022/10/05 09:56:07;;;;;;;8.80;4.45;;;18.00;79.00;;;;;;5023707;28;20025;-80
2022/10/05 09:59:06;;;;;;;7.05;3.53;;;18.00;78.60;;;;;;5022235;28;20033;-78
2022/10/05 10:01:48;;;;;;;6.72;3.42;;;18.20;77.70;;;;;;5006126;28;20097;-78
2022/10/05 10:04:49;;;;;;;9.10;4.15;;;18.20;77.60;;;;;;5006599;28;20034;-77
2022/10/05 10:07:49;;;;;;;8.45;3.58;;;18.20;77.70;;;;;;5010083;28;20017;-78
2022/10/05 10:10:14;;;;;;;6.67;3.00;;;18.30;77.30;;;;;;5011198;28;20491;-75
2022/10/05 10:12:58;;;;;;;5.38;3.33;;;18.40;76.90;;;;;;5010258;28;20056;-75
2022/10/05 10:15:49;;;;;;;8.63;3.97;;;18.60;76.20;;;;;;5012644;28;20734;-77
2022/10/05 10:18:54;;;;;;;7.93;4.20;;;18.60;76.60;;;;;;5029787;28;20044;-76
2022/10/05 10:21:48;;;;;;;16.80;5.03;;;18.70;76.80;;;;;;5007896;28;20124;-76
2022/10/05 10:24:23;;;;;;;8.02;4.30;;;18.80;76.00;;;;;;5028692;28;20041;-77
2022/10/05 10:27:07;;;;;;;6.47;4.30;;;18.90;75.70;;;;;;5009119;28;21404;-78
2022/10/05 10:29:42;;;;;;;6.57;3.70;;;19.00;74.90;;;;;;5027636;28;20124;-78
2022/10/05 10:32:45;;;;;;;6.63;3.75;;;19.00;75.60;;;;;;5027461;28;20034;-78
2022/10/05 10:35:34;;;;;;;7.38;3.83;;;19.10;74.90;;;;;;5028650;28;20018;-77
2022/10/05 10:38:31;;;;;;;8.82;3.25;;;19.20;74.80;;;;;;5029564;28;20033;-77
2022/10/05 10:41:34;;;;;;;7.43;2.88;;;19.30;74.20;;;;;;5028774;28;20064;-77
2022/10/05 10:44:15;;;;;;;7.72;3.90;;;19.50;73.70;;;;;;5012005;28;20114;-77
2022/10/05 10:47:22;;;;;;;5.43;3.03;;;19.60;73.60;;;;;;5025370;28;20029;-77
2022/10/05 10:50:04;;;;;;;8.02;3.47;;;19.60;73.10;;;;;;5009435;28;20472;-76
2022/10/05 10:52:56;;;;;;;6.53;3.00;;;19.50;72.80;;;;;;5026801;28;20175;-75
2022/10/05 10:55:41;;;;;;;8.20;3.40;;;19.40;73.10;;;;;;5025842;28;20033;-77
2022/10/05 10:58:19;;;;;;;8.00;3.38;;;19.30;73.60;;;;;;5012012;28;20033;-77
2022/10/05 11:01:12;;;;;;;7.50;2.63;;;19.30;74.20;;;;;;5026324;28;20025;-78
2022/10/05 11:03:41;;;;;;;5.53;2.92;;;19.20;74.50;;;;;;5027500;28;20038;-74
2022/10/05 11:06:12;;;;;;;4.95;2.45;;;19.20;74.40;;;;;;5026777;28;20104;-78
2022/10/05 11:09:01;;;;;;;5.35;2.40;;;19.30;74.70;;;;;;5026816;28;20113;-78
2022/10/05 11:11:52;;;;;;;10.02;2.90;;;19.30;74.30;;;;;;5026758;28;20056;-75
2022/10/05 11:15:11;;;;;;;6.75;3.03;;;19.30;74.20;;;;;;5010018;28;20688;-76
2022/10/05 11:17:55;;;;;;;7.93;2.90;;;19.30;74.20;;;;;;4945526;28;20028;-77
2022/10/05 11:20:48;;;;;;;4.60;2.67;;;19.30;74.40;;;;;;4947864;28;20054;-75
2022/10/05 11:23:41;;;;;;;7.07;2.25;;;19.20;74.30;;;;;;5005039;28;20064;-76
2022/10/05 11:26:40;;;;;;;6.25;2.75;;;19.30;73.70;;;;;;5023669;28;20025;-76
2022/10/05 11:29:34;;;;;;;7.65;2.80;;;19.40;73.90;;;;;;5006034;28;20052;-78
2022/10/05 11:32:34;;;;;;;7.05;2.75;;;19.40;73.60;;;;;;5007808;28;20038;-78
2022/10/05 11:35:27;;;;;;;4.65;2.53;;;19.40;73.90;;;;;;5008344;28;20028;-75
2022/10/05 11:38:31;;;;;;;6.75;2.47;;;19.50;73.60;;;;;;5006590;28;20072;-77
2022/10/05 11:41:12;;;;;;;8.65;2.92;;;19.40;73.60;;;;;;5008721;28;20041;-76
2022/10/05 11:44:14;;;;;;;9.88;2.63;;;19.40;74.00;;;;;;5025075;28;20037;-78
2022/10/05 11:46:58;;;;;;;6.15;2.55;;;19.50;73.90;;;;;;5026058;28;20034;-76
2022/10/05 11:49:42;;;;;;;7.70;3.08;;;19.50;74.20;;;;;;5025083;28;20092;-76
2022/10/05 11:52:17;;;;;;;7.80;2.95;;;19.50;73.90;;;;;;5024808;28;20061;-77
2022/10/05 11:55:02;;;;;;;5.18;2.38;;;19.40;74.40;;;;;;5026194;28;20468;-74
2022/10/05 11:57:48;;;;;;;6.57;2.50;;;19.50;74.70;;;;;;5011423;28;20032;-76
2022/10/05 12:00:17;;;;;;;6.53;2.65;;;19.60;73.80;;;;;;5011326;28;20484;-77
2022/10/05 12:03:08;;;;;;;5.30;2.58;;;19.50;73.60;;;;;;5009387;28;20037;-75
2022/10/05 12:06:30;;;;;;;7.38;2.70;;;19.60;73.90;;;;;;5032869;28;20033;-77
2022/10/05 12:09:32;;;;;;;8.93;2.58;;;19.60;73.60;;;;;;4969922;28;20069;-75
2022/10/05 12:12:34;;;;;;;5.13;2.40;;;19.60;73.90;;;;;;4976502;28;20031;-76
2022/10/05 12:15:22;;;;;;;7.25;2.85;;;19.70;73.80;;;;;;5015689;28;20676;-76
2022/10/05 12:17:56;;;;;;;5.75;2.70;;;19.80;73.90;;;;;;5028485;28;20025;-75
2022/10/05 12:20:29;;;;;;;9.88;2.70;;;19.90;73.30;;;;;;5024999;28;20759;-76
2022/10/05 12:23:03;;;;;;;7.43;2.78;;;20.00;72.90;;;;;;5028566;28;20038;-75
2022/10/05 12:25:38;;;;;;;5.90;2.25;;;20.10;72.40;;;;;;5037555;28;20021;-75
2022/10/05 12:28:20;;;;;;;5.57;2.60;;;20.20;72.20;;;;;;5010571;28;20510;-75
2022/10/05 12:30:59;;;;;;;8.30;2.28;;;20.40;71.90;;;;;;5024589;28;20422;-75
2022/10/05 12:33:47;;;;;;;6.75;2.17;;;20.40;71.90;;;;;;5008903;28;20400;-75
2022/10/05 12:36:31;;;;;;;11.18;2.67;;;20.60;71.90;;;;;;5040318;28;20034;-75
2022/10/05 12:39:22;;;;;;;6.32;2.30;;;20.80;71.00;;;;;;5023785;28;20112;-73
2022/10/05 12:42:14;;;;;;;5.43;2.20;;;20.80;70.90;;;;;;4995112;28;20057;-75
2022/10/05 12:44:57;;;;;;;5.50;1.55;;;20.90;70.10;;;;;;5013989;28;20131;-73
2022/10/05 12:47:41;;;;;;;6.45;2.30;;;20.90;70.50;;;;;;5018393;28;20607;-73
2022/10/05 12:50:47;;;;;;;5.22;1.92;;;20.90;70.60;;;;;;5016225;28;20254;-74
2022/10/05 12:53:37;;;;;;;5.85;1.98;;;20.90;70.10;;;;;;4952629;28;20532;-76
2022/10/05 12:56:28;;;;;;;5.18;1.95;;;20.90;69.90;;;;;;5024111;28;20484;-73
2022/10/05 12:58:59;;;;;;;;;;;20.90;70.10;;;;;;5028018;28;20108;-74
2022/10/05 13:01:42;;;;;;;2.60;1.45;;;21.00;69.90;;;;;;5026150;28;19917;-74
2022/10/05 13:04:16;;;;;;;7.07;1.85;;;21.10;70.30;;;;;;5028388;28;20112;-73
2022/10/05 13:07:03;;;;;;;6.78;2.20;;;21.10;70.30;;;;;;5026231;28;20026;-72
2022/10/05 13:09:39;;;;;;;5.00;1.77;;;21.20;70.10;;;;;;5012235;28;20121;-74
2022/10/05 13:12:18;;;;;;;3.85;1.80;;;21.20;70.10;;;;;;5029574;28;20021;-74
2022/10/05 13:14:47;;;;;;;7.10;2.33;;;21.10;70.30;;;;;;5030422;28;20021;-74
2022/10/05 13:17:44;;;;;;;4.25;2.03;;;21.20;70.00;;;;;;5010208;28;20030;-74
2022/10/05 13:20:36;;;;;;;4.03;1.77;;;21.20;70.10;;;;;;5028106;28;20049;-74
2022/10/05 13:23:15;;;;;;;6.63;2.13;;;21.20;70.00;;;;;;5013011;28;20507;-74
2022/10/05 13:26:11;;;;;;;4.85;2.00;;;21.20;70.30;;;;;;5029750;28;20580;-73
2022/10/05 13:28:55;;;;;;;7.47;1.70;;;21.20;70.50;;;;;;5029796;28;20072;-73
2022/10/05 13:31:34;;;;;;;4.55;2.03;;;21.30;70.40;;;;;;5031203;28;20053;-73
2022/10/05 13:34:28;;;;;;;5.93;2.20;;;21.50;70.10;;;;;;5009797;28;20099;-74
2022/10/05 13:37:20;;;;;;;3.28;1.23;;;21.70;69.40;;;;;;5016168;28;20099;-73
2022/10/05 13:40:13;;;;;;;6.05;2.50;;;21.70;69.50;;;;;;5029684;28;20056;-73
2022/10/05 13:42:57;;;;;;;4.90;2.00;;;21.90;68.40;;;;;;5029708;28;20049;-73
2022/10/05 13:45:30;;;;;;;4.88;1.52;;;21.80;68.40;;;;;;5027828;28;20027;-72
2022/10/05 13:48:15;;;;;;;5.57;1.73;;;21.70;68.90;;;;;;5017816;28;20396;-73
2022/10/05 13:50:58;;;;;;;4.13;1.70;;;21.80;69.40;;;;;;5011099;28;20125;-73
2022/10/05 13:53:40;;;;;;;5.75;1.98;;;22.00;68.90;;;;;;5012269;28;20021;-74
2022/10/05 13:56:12;;;;;;;6.05;1.83;;;21.90;68.50;;;;;;5029709;28;20086;-74
2022/10/05 13:58:58;;;;;;;5.15;1.65;;;21.90;68.60;;;;;;5030528;28;20034;-74
2022/10/05 14:01:42;;;;;;;3.13;1.55;;;21.90;68.70;;;;;;5012824;28;20037;-73
2022/10/05 14:04:23;;;;;;;6.68;1.80;;;22.00;69.00;;;;;;5028796;28;20033;-74
2022/10/05 14:06:51;;;;;;;4.70;2.13;;;22.20;68.80;;;;;;5014122;28;20075;-75
2022/10/05 14:09:20;;;;;;;5.55;2.10;;;22.20;68.20;;;;;;5012628;28;20018;-74
2022/10/05 14:12:12;;;;;;;6.38;1.92;;;22.20;68.40;;;;;;5010867;28;20031;-74